createdAt,value
2018-08-16T00:00:02.514Z,58.67
2018-08-16T00:02:30.186Z,58.67
2018-08-16T00:04:58.076Z,59.43
2018-08-16T00:07:25.821Z,59.85
2018-08-16T00:09:54.212Z,59.46
2018-08-16T00:12:21.962Z,60.05
2018-08-16T00:14:49.794Z,60.02
2018-08-16T00:17:17.620Z,59.58
2018-08-16T00:19:45.334Z,60.25
2018-08-16T00:22:13.130Z,59.92
2018-08-16T00:24:40.841Z,60.47
2018-08-16T00:27:08.627Z,59.85
2018-08-16T00:29:36.330Z,59.39
2018-08-16T00:32:04.059Z,60.19
2018-08-16T00:34:31.870Z,59.54
2018-08-16T00:36:59.786Z,60.02
2018-08-16T00:39:27.673Z,60.02
2018-08-16T00:41:55.506Z,60.10
2018-08-16T00:44:23.341Z,60.25
2018-08-16T00:46:51.167Z,59.83
2018-08-16T00:49:18.955Z,60.23
2018-08-16T00:51:46.722Z,59.65
2018-08-16T00:54:14.532Z,59.68
2018-08-16T00:56:42.285Z,59.85
2018-08-16T00:59:09.978Z,60.15
2018-08-16T01:01:37.666Z,60.09
2018-08-16T01:04:05.701Z,60.21
2018-08-16T01:06:33.360Z,61.47
2018-08-16T01:09:01.019Z,61.44
2018-08-16T01:11:28.777Z,61.68
2018-08-16T01:13:56.429Z,61.21
2018-08-16T01:16:24.108Z,61.47
2018-08-16T01:18:51.945Z,60.77
2018-08-16T01:21:19.590Z,60.82
2018-08-16T01:23:47.248Z,60.45
2018-08-16T01:26:14.982Z,60.00
2018-08-16T01:28:42.809Z,60.25
2018-08-16T01:31:10.630Z,59.91
2018-08-16T01:33:38.357Z,60.70
2018-08-16T01:36:06.137Z,60.58
2018-08-16T01:38:33.835Z,60.53
2018-08-16T01:41:01.530Z,61.44
2018-08-16T01:43:29.196Z,61.28
2018-08-16T01:45:56.875Z,61.50
2018-08-16T01:48:24.569Z,60.74
2018-08-16T01:50:52.287Z,61.24
2018-08-16T01:53:20.395Z,61.38
2018-08-16T01:55:48.123Z,62.06
2018-08-16T01:58:15.835Z,61.75
2018-08-16T02:00:43.506Z,61.68
2018-08-16T02:03:11.169Z,61.73
2018-08-16T02:05:38.858Z,62.47
2018-08-16T02:08:06.657Z,61.94
2018-08-16T02:10:34.321Z,63.24
2018-08-16T02:13:02.014Z,63.36
2018-08-16T02:15:29.705Z,61.87
2018-08-16T02:17:57.372Z,61.86
2018-08-16T02:20:25.089Z,62.79
2018-08-16T02:22:52.771Z,62.88
2018-08-16T02:25:20.499Z,63.11
2018-08-16T02:27:48.186Z,62.86
2018-08-16T02:30:15.841Z,62.56
2018-08-16T02:32:43.529Z,62.99
2018-08-16T02:35:11.284Z,62.88
2018-08-16T02:37:39.006Z,63.20
2018-08-16T02:40:07.386Z,63.55
2018-08-16T02:42:35.202Z,63.95
2018-08-16T02:45:02.971Z,63.72
2018-08-16T02:47:30.653Z,64.91
2018-08-16T02:49:58.305Z,64.76
2018-08-16T02:52:26.001Z,64.61
2018-08-16T02:54:53.681Z,64.23
2018-08-16T02:57:21.437Z,64.04
2018-08-16T02:59:49.091Z,64.09
2018-08-16T03:02:16.777Z,64.50
2018-08-16T03:04:44.539Z,64.55
2018-08-16T03:07:12.220Z,64.49
2018-08-16T03:09:39.921Z,65.10
2018-08-16T03:12:09.689Z,65.50
2018-08-16T03:14:37.514Z,65.01
2018-08-16T03:17:05.345Z,65.61
2018-08-16T03:19:33.037Z,65.71
2018-08-16T03:22:00.755Z,65.31
2018-08-16T03:24:28.430Z,65.37
2018-08-16T03:26:56.109Z,65.08
2018-08-16T03:29:23.815Z,65.13
2018-08-16T03:31:51.475Z,64.40
2018-08-16T03:34:19.129Z,64.35
2018-08-16T03:36:46.790Z,64.36
2018-08-16T03:39:14.438Z,64.96
2018-08-16T03:41:42.157Z,63.91
2018-08-16T03:44:09.796Z,63.60
2018-08-16T03:46:37.502Z,62.61
2018-08-16T03:49:05.342Z,61.69
2018-08-16T03:51:32.986Z,60.39
2018-08-16T03:54:00.641Z,55.44
2018-08-16T03:56:28.379Z,50.34
2018-08-16T03:58:56.054Z,48.26
2018-08-16T04:01:23.722Z,47.53
2018-08-16T04:03:51.419Z,45.85
2018-08-16T04:06:19.098Z,44.88
2018-08-16T04:08:46.759Z,43.35
2018-08-16T04:11:14.506Z,42.57
2018-08-16T04:13:42.238Z,40.65
2018-08-16T04:16:09.976Z,40.20
2018-08-16T04:18:37.630Z,39.43
2018-08-16T04:21:05.354Z,38.17
2018-08-16T04:23:33.063Z,36.14
2018-08-16T04:26:00.730Z,36.17
2018-08-16T04:28:28.386Z,34.42
2018-08-16T04:30:56.046Z,34.50
2018-08-16T04:33:23.736Z,34.30
2018-08-16T04:35:51.382Z,34.01
2018-08-16T04:38:19.022Z,34.79
2018-08-16T04:40:46.658Z,33.46
2018-08-16T04:43:14.314Z,31.41
2018-08-16T04:45:41.996Z,30.24
2018-08-16T04:48:09.636Z,30.51
2018-08-16T04:50:37.315Z,33.47
2018-08-16T04:53:05.143Z,33.61
2018-08-16T04:55:32.821Z,33.86
2018-08-16T04:58:00.518Z,33.64
2018-08-16T05:00:28.257Z,31.85
2018-08-16T05:02:55.973Z,30.29
2018-08-16T05:05:23.677Z,29.67
2018-08-16T05:07:51.347Z,29.46
2018-08-16T05:10:19.030Z,30.85
2018-08-16T05:12:46.673Z,29.61
2018-08-16T05:15:14.366Z,33.79
2018-08-16T05:17:42.014Z,38.90
2018-08-16T05:20:11.849Z,40.13
2018-08-16T05:22:39.557Z,40.47
2018-08-16T05:25:07.330Z,42.52
2018-08-16T05:27:35.349Z,43.14
2018-08-16T05:30:04.410Z,41.80
2018-08-16T05:32:32.105Z,37.63
2018-08-16T05:34:59.824Z,34.00
2018-08-16T05:37:27.534Z,33.82
2018-08-16T05:39:55.218Z,34.07
2018-08-16T05:42:22.912Z,34.62
2018-08-16T05:44:50.573Z,32.88
2018-08-16T05:47:18.269Z,31.23
2018-08-16T05:49:45.917Z,30.20
2018-08-16T05:52:13.617Z,30.84
2018-08-16T05:54:41.281Z,33.39
2018-08-16T05:57:08.965Z,30.54
2018-08-16T05:59:36.699Z,28.39
2018-08-16T06:02:04.423Z,29.24
2018-08-16T06:04:32.115Z,28.74
2018-08-16T06:06:59.818Z,27.48
2018-08-16T06:09:27.465Z,26.86
2018-08-16T06:11:55.165Z,29.53
2018-08-16T06:14:22.831Z,31.54
2018-08-16T06:16:50.494Z,34.65
2018-08-16T06:19:18.188Z,37.38
2018-08-16T06:21:45.902Z,39.18
2018-08-16T06:24:13.608Z,40.88
2018-08-16T06:26:41.380Z,38.19
2018-08-16T06:29:09.098Z,37.10
2018-08-16T06:31:36.935Z,33.43
2018-08-16T06:34:04.727Z,29.85
2018-08-16T06:36:32.402Z,31.03
2018-08-16T06:39:00.174Z,31.59
2018-08-16T06:41:27.886Z,31.61
2018-08-16T06:43:55.574Z,34.00
2018-08-16T06:46:23.359Z,34.35
2018-08-16T06:48:51.115Z,33.43
2018-08-16T06:51:18.829Z,36.77
2018-08-16T06:53:46.542Z,35.59
2018-08-16T06:56:14.295Z,35.09
2018-08-16T06:58:42.046Z,36.20
2018-08-16T07:01:09.867Z,36.67
2018-08-16T07:03:37.547Z,35.05
2018-08-16T07:06:05.393Z,35.05
2018-08-16T07:08:33.073Z,33.10
2018-08-16T07:11:00.921Z,36.07
2018-08-16T07:13:28.658Z,35.20
2018-08-16T07:15:56.324Z,34.74
2018-08-16T07:18:24.001Z,35.66
2018-08-16T07:20:51.682Z,36.70
2018-08-16T07:23:19.437Z,34.69
2018-08-16T07:25:47.108Z,36.59
2018-08-16T07:28:14.817Z,37.14
2018-08-16T07:30:42.515Z,38.14
2018-08-16T07:33:10.166Z,40.35
2018-08-16T07:35:37.881Z,41.02
2018-08-16T07:38:05.634Z,41.20
2018-08-16T07:40:33.342Z,39.07
2018-08-16T07:43:01.043Z,36.55
2018-08-16T07:45:28.823Z,36.80
2018-08-16T07:47:56.594Z,38.11
2018-08-16T07:50:24.324Z,37.73
2018-08-16T07:52:52.057Z,36.38
2018-08-16T07:55:19.760Z,34.15
2018-08-16T07:57:47.448Z,34.03
2018-08-16T08:00:18.716Z,35.37
2018-08-16T08:02:46.842Z,36.10
2018-08-16T08:05:14.647Z,33.72
2018-08-16T08:07:42.677Z,34.67
2018-08-16T08:10:10.456Z,34.81
2018-08-16T08:12:38.863Z,35.06
2018-08-16T08:15:09.144Z,35.18
2018-08-16T08:17:37.261Z,34.60
2018-08-16T08:20:06.946Z,34.02
2018-08-16T08:22:34.664Z,34.36
2018-08-16T08:25:02.419Z,33.49
2018-08-16T08:27:30.141Z,33.27
2018-08-16T08:29:57.864Z,32.92
2018-08-16T08:32:25.593Z,32.40
2018-08-16T08:34:53.352Z,31.66
2018-08-16T08:37:32.129Z,30.48
2018-08-16T08:39:59.830Z,33.23
2018-08-16T08:42:27.536Z,32.36
2018-08-16T08:44:55.195Z,33.68
2018-08-16T08:47:27.381Z,33.39
2018-08-16T08:49:55.934Z,33.41
2018-08-16T08:52:23.593Z,32.06
2018-08-16T08:55:02.331Z,30.62
2018-08-16T08:57:41.620Z,32.86
2018-08-16T09:00:09.524Z,31.62
2018-08-16T09:02:37.210Z,32.33
2018-08-16T09:05:05.558Z,32.41
2018-08-16T09:07:33.342Z,31.22
2018-08-16T09:11:19.148Z,30.01
2018-08-16T09:14:00.337Z,28.81
2018-08-16T09:16:33.263Z,29.87
2018-08-16T09:19:01.182Z,30.20
2018-08-16T09:21:29.560Z,29.44
2018-08-16T09:23:57.374Z,28.98
2018-08-16T09:26:30.578Z,27.84
2018-08-16T09:28:58.395Z,28.05
2018-08-16T09:31:37.284Z,26.83
2018-08-16T09:34:14.059Z,26.46
2018-08-16T09:36:41.765Z,26.83
2018-08-16T09:39:09.605Z,27.11
2018-08-16T09:41:37.546Z,28.75
2018-08-16T09:44:05.446Z,28.23
2018-08-16T09:47:11.603Z,29.36
2018-08-16T09:49:41.314Z,27.82
2018-08-16T09:52:10.097Z,27.14
2018-08-16T09:54:37.885Z,27.38
2018-08-16T09:57:07.133Z,27.76
2018-08-16T09:59:35.115Z,28.81
2018-08-16T10:02:03.448Z,28.20
2018-08-16T10:04:31.086Z,27.19
2018-08-16T10:06:58.919Z,25.81
2018-08-16T10:09:28.877Z,27.58
2018-08-16T10:11:57.534Z,27.21
2018-08-16T10:14:25.332Z,26.36
2018-08-16T10:16:53.042Z,27.49
2018-08-16T10:19:21.054Z,26.21
2018-08-16T10:21:48.816Z,26.61
2018-08-16T10:24:16.547Z,27.85
2018-08-16T10:26:44.241Z,27.08
2018-08-16T10:29:12.330Z,25.38
2018-08-16T10:31:40.162Z,26.51
2018-08-16T10:34:07.984Z,24.66
2018-08-16T10:36:35.744Z,24.63
2018-08-16T10:39:05.562Z,25.57
2018-08-16T10:41:33.346Z,25.85
2018-08-16T10:44:01.048Z,25.78
2018-08-16T10:46:28.866Z,26.65
2018-08-16T10:48:56.639Z,26.30
2018-08-16T10:51:24.371Z,28.36
2018-08-16T10:53:52.130Z,29.85
2018-08-16T10:56:20.164Z,29.14
2018-08-16T10:58:47.902Z,27.08
2018-08-16T11:01:15.662Z,25.57
2018-08-16T11:03:43.413Z,27.01
2018-08-16T11:06:11.206Z,26.86
2018-08-16T11:08:38.918Z,25.57
2018-08-16T11:11:06.915Z,27.06
2018-08-16T11:13:34.586Z,26.54
2018-08-16T11:16:02.285Z,25.95
2018-08-16T11:18:30.323Z,25.16
2018-08-16T11:20:58.056Z,24.99
2018-08-16T11:23:25.778Z,23.52
2018-08-16T11:25:53.614Z,22.55
2018-08-16T11:28:21.316Z,22.87
2018-08-16T11:30:49.062Z,22.67
2018-08-16T11:33:16.839Z,23.65
2018-08-16T11:35:44.518Z,23.33
2018-08-16T11:38:13.114Z,22.12
2018-08-16T11:40:40.878Z,22.48
2018-08-16T11:43:08.578Z,23.71
2018-08-16T11:45:36.283Z,24.20
2018-08-16T11:48:04.083Z,22.65
2018-08-16T11:50:32.086Z,22.76
2018-08-16T11:52:59.793Z,22.42
2018-08-16T11:55:27.496Z,22.61
2018-08-16T11:57:55.188Z,22.49
2018-08-16T12:00:22.933Z,23.61
2018-08-16T12:02:50.694Z,25.11
2018-08-16T12:05:18.477Z,23.99
2018-08-16T12:07:46.197Z,24.95
2018-08-16T12:10:14.785Z,24.06
2018-08-16T12:12:42.481Z,24.19
2018-08-16T12:15:10.245Z,24.69
2018-08-16T12:17:38.009Z,23.24
2018-08-16T12:20:06.678Z,22.61
2018-08-16T12:22:34.678Z,22.31
2018-08-16T12:25:02.494Z,22.75
2018-08-16T12:27:30.342Z,21.94
2018-08-16T12:29:58.075Z,22.16
2018-08-16T12:32:25.842Z,20.51
2018-08-16T12:34:53.552Z,19.25
2018-08-16T12:37:21.266Z,19.66
2018-08-16T12:39:49.000Z,20.11
2018-08-16T12:42:16.848Z,21.24
2018-08-16T12:44:44.437Z,21.39
2018-08-16T12:47:12.169Z,21.53
2018-08-16T12:49:39.860Z,21.13
2018-08-16T12:52:07.977Z,19.23
2018-08-16T12:54:35.737Z,18.10
2018-08-16T12:57:03.538Z,18.85
2018-08-16T12:59:31.234Z,18.62
2018-08-16T13:01:59.015Z,20.62
2018-08-16T13:04:26.707Z,21.34
2018-08-16T13:06:54.506Z,20.80
2018-08-16T13:09:22.243Z,21.45
2018-08-16T13:11:49.963Z,22.57
2018-08-16T13:14:17.737Z,22.05
2018-08-16T13:16:45.464Z,22.19
2018-08-16T13:19:13.218Z,20.88
2018-08-16T13:21:40.935Z,21.09
2018-08-16T13:24:08.746Z,21.47
2018-08-16T13:26:36.492Z,20.87
2018-08-16T13:29:04.655Z,22.00
2018-08-16T13:31:32.387Z,21.61
2018-08-16T13:34:00.143Z,21.47
2018-08-16T13:36:27.886Z,21.73
2018-08-16T13:38:55.683Z,23.21
2018-08-16T13:41:23.537Z,23.40
2018-08-16T13:43:51.315Z,21.73
2018-08-16T13:46:19.103Z,21.36
2018-08-16T13:48:46.936Z,21.02
2018-08-16T13:51:14.590Z,20.98
2018-08-16T13:53:42.274Z,20.67
2018-08-16T13:56:10.047Z,19.99
2018-08-16T13:58:37.791Z,19.97
2018-08-16T14:01:05.543Z,19.18
2018-08-16T14:03:33.318Z,18.04
2018-08-16T14:06:01.025Z,18.94
2018-08-16T14:08:28.770Z,19.29
2018-08-16T14:10:56.492Z,19.74
2018-08-16T14:13:24.304Z,18.23
2018-08-16T14:15:52.414Z,19.30
2018-08-16T14:18:20.105Z,18.39
2018-08-16T14:20:47.874Z,20.77
2018-08-16T14:23:15.623Z,21.02
2018-08-16T14:25:43.339Z,21.52
2018-08-16T14:28:11.050Z,21.31
2018-08-16T14:30:38.852Z,22.43
2018-08-16T14:33:06.589Z,21.93
2018-08-16T14:35:34.650Z,22.03
2018-08-16T14:38:02.367Z,22.00
2018-08-16T14:40:30.087Z,23.64
2018-08-16T14:42:57.826Z,22.75
2018-08-16T14:45:25.590Z,23.44
2018-08-16T14:47:53.420Z,23.69
2018-08-16T14:50:21.250Z,23.47
2018-08-16T14:52:49.037Z,24.29
2018-08-16T14:55:16.754Z,23.72
2018-08-16T14:57:44.520Z,24.07
2018-08-16T15:00:12.217Z,24.36
2018-08-16T15:02:40.519Z,23.89
2018-08-16T15:05:08.684Z,23.85
2018-08-16T15:07:36.388Z,23.12
2018-08-16T15:10:04.975Z,22.82
2018-08-16T15:12:32.728Z,22.20
2018-08-16T15:15:01.430Z,22.78
2018-08-16T15:17:29.152Z,23.27
2018-08-16T15:19:56.882Z,22.71
2018-08-16T15:22:24.622Z,22.38
2018-08-16T15:24:52.334Z,21.98
2018-08-16T15:27:20.031Z,22.63
2018-08-16T15:29:47.754Z,22.28
2018-08-16T15:32:15.529Z,22.65
2018-08-16T15:34:43.250Z,22.52
2018-08-16T15:37:10.953Z,22.72
2018-08-16T15:39:38.710Z,22.81
2018-08-16T15:42:06.494Z,22.51
2018-08-16T15:44:34.231Z,22.82
2018-08-16T15:47:01.954Z,22.86
2018-08-16T15:49:29.652Z,23.27
2018-08-16T15:51:57.730Z,23.60
2018-08-16T15:54:25.506Z,23.61
2018-08-16T15:56:53.255Z,23.25
2018-08-16T15:59:21.011Z,24.08
2018-08-16T16:01:50.799Z,23.20
2018-08-16T16:04:19.841Z,22.37
2018-08-16T16:06:47.578Z,23.67
2018-08-16T16:09:15.264Z,23.46
2018-08-16T16:11:42.963Z,22.88
2018-08-16T16:14:10.723Z,23.60
2018-08-16T16:16:38.455Z,23.02
2018-08-16T16:19:06.262Z,23.84
2018-08-16T16:21:34.013Z,24.74
2018-08-16T16:24:02.014Z,24.51
2018-08-16T16:26:29.798Z,24.20
2018-08-16T16:28:57.526Z,25.03
2018-08-16T16:31:27.053Z,24.01
2018-08-16T16:33:54.782Z,24.70
2018-08-16T16:36:22.928Z,24.75
2018-08-16T16:38:51.006Z,24.39
2018-08-16T16:41:19.034Z,25.00
2018-08-16T16:43:46.844Z,25.09
2018-08-16T16:46:14.667Z,25.01
2018-08-16T16:48:42.539Z,25.26
2018-08-16T16:51:12.982Z,26.57
2018-08-16T16:53:40.781Z,27.35
2018-08-16T16:56:08.850Z,27.69
2018-08-16T16:58:36.651Z,29.41
2018-08-16T17:01:04.859Z,30.32
2018-08-16T17:03:32.646Z,30.30
2018-08-16T17:06:00.371Z,29.93
2018-08-16T17:08:28.070Z,30.73
2018-08-16T17:10:55.766Z,31.14
2018-08-16T17:13:23.628Z,31.62
2018-08-16T17:15:51.349Z,31.91
2018-08-16T17:18:19.090Z,32.25
2018-08-16T17:20:46.782Z,31.80
2018-08-16T17:23:14.494Z,32.34
2018-08-16T17:25:42.250Z,32.32
2018-08-16T17:28:09.957Z,32.10
2018-08-16T17:30:37.801Z,31.97
2018-08-16T17:33:05.530Z,32.69
2018-08-16T17:35:33.250Z,32.63
2018-08-16T17:38:00.947Z,33.51
2018-08-16T17:40:28.680Z,34.36
2018-08-16T17:42:56.376Z,35.01
2018-08-16T17:45:24.196Z,34.95
2018-08-16T17:47:51.938Z,35.06
2018-08-16T17:50:20.009Z,35.66
2018-08-16T17:52:47.757Z,36.25
2018-08-16T17:55:15.464Z,36.38
2018-08-16T17:57:43.166Z,36.46
2018-08-16T18:00:11.865Z,36.19
2018-08-16T18:02:39.906Z,35.85
2018-08-16T18:05:08.132Z,35.72
2018-08-16T18:07:36.157Z,36.02
2018-08-16T18:10:05.295Z,35.80
2018-08-16T18:12:33.367Z,35.85
2018-08-16T18:15:01.078Z,35.60
2018-08-16T18:17:29.533Z,36.54
2018-08-16T18:19:57.229Z,35.82
2018-08-16T18:22:24.898Z,36.52
2018-08-16T18:24:52.674Z,36.44
2018-08-16T18:27:20.461Z,37.58
2018-08-16T18:29:48.209Z,39.20
2018-08-16T18:32:15.915Z,40.09
2018-08-16T18:34:43.631Z,40.34
2018-08-16T18:37:11.337Z,41.63
2018-08-16T18:39:39.038Z,40.60
2018-08-16T18:42:06.834Z,40.87
2018-08-16T18:44:34.577Z,41.23
2018-08-16T18:47:02.276Z,40.85
2018-08-16T18:49:30.594Z,40.01
2018-08-16T18:51:58.451Z,40.19
2018-08-16T18:54:26.236Z,39.95
2018-08-16T18:56:54.126Z,39.73
2018-08-16T18:59:22.397Z,40.38
2018-08-16T19:01:50.193Z,40.33
2018-08-16T19:04:18.302Z,40.14
2018-08-16T19:06:46.072Z,39.21
2018-08-16T19:09:13.801Z,39.88
2018-08-16T19:11:41.602Z,39.93
2018-08-16T19:14:09.567Z,39.12
2018-08-16T19:16:37.750Z,39.56
2018-08-16T19:19:05.887Z,40.65
2018-08-16T19:21:33.973Z,39.77
2018-08-16T19:24:01.642Z,44.01
2018-08-16T19:26:29.370Z,42.62
2018-08-16T19:28:57.062Z,43.00
2018-08-16T19:31:24.794Z,40.66
2018-08-16T19:33:52.752Z,41.13
2018-08-16T19:36:20.491Z,41.02
2018-08-16T19:38:48.247Z,40.53
2018-08-16T19:41:16.029Z,41.33
2018-08-16T19:43:43.759Z,41.18
2018-08-16T19:46:11.565Z,40.72
2018-08-16T19:48:39.324Z,40.07
2018-08-16T19:51:07.356Z,38.58
2018-08-16T19:53:35.145Z,39.23
2018-08-16T19:56:02.937Z,39.06
2018-08-16T19:58:30.677Z,40.17
2018-08-16T20:00:58.795Z,40.41
2018-08-16T20:03:27.168Z,38.56
2018-08-16T20:05:54.898Z,38.59
2018-08-16T20:08:22.625Z,38.41
2018-08-16T20:10:50.382Z,38.24
2018-08-16T20:13:18.222Z,38.48
2018-08-16T20:15:46.817Z,39.57
2018-08-16T20:18:14.647Z,39.91
2018-08-16T20:20:42.338Z,41.21
2018-08-16T20:23:10.364Z,41.40
2018-08-16T20:25:38.132Z,41.23
2018-08-16T20:28:06.343Z,40.48
2018-08-16T20:30:34.116Z,41.35
2018-08-16T20:33:01.837Z,41.25
2018-08-16T20:35:29.573Z,41.65
2018-08-16T20:37:57.342Z,41.90
2018-08-16T20:40:25.117Z,42.14
2018-08-16T20:42:52.898Z,41.43
2018-08-16T20:45:20.722Z,42.08
2018-08-16T20:47:48.543Z,42.91
2018-08-16T20:50:16.348Z,42.51
2018-08-16T20:52:44.084Z,44.23
2018-08-16T20:55:11.886Z,44.29
2018-08-16T20:57:39.657Z,43.76
2018-08-16T21:00:09.021Z,42.95
2018-08-16T21:02:36.709Z,43.44
2018-08-16T21:05:05.035Z,43.47
2018-08-16T21:07:32.728Z,43.11
2018-08-16T21:10:00.428Z,43.67
2018-08-16T21:12:28.167Z,44.49
2018-08-16T21:14:55.915Z,43.59
2018-08-16T21:17:23.619Z,43.73
2018-08-16T21:19:51.310Z,44.39
2018-08-16T21:22:19.041Z,43.89
2018-08-16T21:24:46.731Z,44.30
2018-08-16T21:27:14.426Z,44.38
2018-08-16T21:29:42.136Z,44.77
2018-08-16T21:32:09.826Z,44.10
2018-08-16T21:34:37.560Z,44.74
2018-08-16T21:37:05.474Z,44.34
2018-08-16T21:39:33.474Z,44.84
2018-08-16T21:42:01.162Z,45.27
2018-08-16T21:44:28.835Z,44.35
2018-08-16T21:46:56.489Z,44.64
2018-08-16T21:49:24.216Z,45.86
2018-08-16T21:51:51.886Z,46.86
2018-08-16T21:54:19.557Z,47.13
2018-08-16T21:56:47.225Z,47.07
2018-08-16T21:59:14.885Z,46.54
2018-08-16T22:01:42.638Z,46.24
2018-08-16T22:04:10.384Z,46.48
2018-08-16T22:06:49.212Z,47.53
2018-08-16T22:09:16.950Z,47.50
2018-08-16T22:11:44.637Z,48.13
2018-08-16T22:14:12.309Z,48.30
2018-08-16T22:16:39.974Z,48.43
2018-08-16T22:19:07.678Z,48.10
2018-08-16T22:21:35.403Z,47.78
2018-08-16T22:24:03.239Z,48.26
2018-08-16T22:26:31.372Z,48.11
2018-08-16T22:28:59.051Z,47.64
2018-08-16T22:31:26.759Z,47.22
2018-08-16T22:33:54.470Z,47.92
2018-08-16T22:36:22.160Z,48.08
2018-08-16T22:38:49.848Z,47.85
2018-08-16T22:41:17.513Z,49.25
2018-08-16T22:43:45.214Z,49.81
2018-08-16T22:46:12.898Z,50.02
2018-08-16T22:48:40.579Z,50.21
2018-08-16T22:51:08.247Z,50.04
2018-08-16T22:53:35.931Z,50.27
2018-08-16T22:56:03.650Z,50.00
2018-08-16T22:58:31.338Z,50.72
2018-08-16T23:00:59.002Z,50.97
2018-08-16T23:03:26.662Z,50.40
2018-08-16T23:05:54.353Z,50.85
2018-08-16T23:08:22.055Z,50.98
2018-08-16T23:10:49.759Z,51.61
2018-08-16T23:13:17.439Z,51.04
2018-08-16T23:15:45.141Z,52.21
2018-08-16T23:18:12.827Z,51.52
2018-08-16T23:20:40.494Z,52.26
2018-08-16T23:23:08.149Z,52.28
2018-08-16T23:25:35.835Z,52.71
2018-08-16T23:28:03.509Z,53.22
2018-08-16T23:30:31.174Z,52.80
2018-08-16T23:32:58.943Z,52.88
2018-08-16T23:35:26.600Z,53.03
2018-08-16T23:37:54.257Z,53.57
2018-08-16T23:40:21.929Z,54.49
2018-08-16T23:42:49.798Z,54.18
2018-08-16T23:45:17.489Z,54.21
2018-08-16T23:47:56.387Z,54.90
2018-08-16T23:50:24.112Z,54.60
2018-08-16T23:52:51.822Z,54.96
2018-08-16T23:55:19.538Z,55.02
2018-08-16T23:57:47.236Z,55.41
